sensor_id;sensor_type;location;lat;lon;timestamp;temperature;humidity
12957;DHT22;6543;48.836;10.092;2023-02-14T00:01:19;0.70;99.90
12957;DHT22;6543;48.836;10.092;2023-02-14T00:03:46;0.60;99.90
12957;DHT22;6543;48.836;10.092;2023-02-14T00:06:14;0.60;99.90
12957;DHT22;6543;48.836;10.092;2023-02-14T00:08:41;0.60;99.90
12957;DHT22;6543;48.836;10.092;2023-02-14T00:11:09;0.60;99.90
12957;DHT22;6543;48.836;10.092;2023-02-14T00:13:36;0.60;99.90
12957;DHT22;6543;48.836;10.092;2023-02-14T00:16:03;0.60;99.90
12957;DHT22;6543;48.836;10.092;2023-02-14T00:18:30;0.60;99.90
12957;DHT22;6543;48.836;10.092;2023-02-14T00:21:11;0.60;99.90
12957;DHT22;6543;48.836;10.092;2023-02-14T00:23:38;0.50;99.90
12957;DHT22;6543;48.836;10.092;2023-02-14T00:26:04;0.50;99.90
12957;DHT22;6543;48.836;10.092;2023-02-14T00:28:31;0.50;99.90
12957;DHT22;6543;48.836;10.092;2023-02-14T00:31:00;0.50;99.90
12957;DHT22;6543;48.836;10.092;2023-02-14T00:33:27;0.50;99.90
12957;DHT22;6543;48.836;10.092;2023-02-14T00:35:55;0.50;99.90
12957;DHT22;6543;48.836;10.092;2023-02-14T00:38:22;0.50;99.90
12957;DHT22;6543;48.836;10.092;2023-02-14T00:40:48;0.50;99.90
12957;DHT22;6543;48.836;10.092;2023-02-14T00:43:15;0.50;99.90
12957;DHT22;6543;48.836;10.092;2023-02-14T00:45:42;0.50;99.90
12957;DHT22;6543;48.836;10.092;2023-02-14T00:48:09;0.50;99.90
12957;DHT22;6543;48.836;10.092;2023-02-14T00:50:36;0.50;99.90
12957;DHT22;6543;48.836;10.092;2023-02-14T00:53:04;0.50;99.90
12957;DHT22;6543;48.836;10.092;2023-02-14T00:55:30;0.50;99.90
12957;DHT22;6543;48.836;10.092;2023-02-14T00:57:57;0.50;99.90
12957;DHT22;6543;48.836;10.092;2023-02-14T01:00:24;0.50;99.90
12957;DHT22;6543;48.836;10.092;2023-02-14T01:02:51;0.40;99.90
12957;DHT22;6543;48.836;10.092;2023-02-14T01:05:18;0.40;99.90
12957;DHT22;6543;48.836;10.092;2023-02-14T01:07:45;0.40;99.90
12957;DHT22;6543;48.836;10.092;2023-02-14T01:10:13;0.40;99.90
12957;DHT22;6543;48.836;10.092;2023-02-14T01:12:39;0.50;99.90
12957;DHT22;6543;48.836;10.092;2023-02-14T01:15:07;0.40;99.90
12957;DHT22;6543;48.836;10.092;2023-02-14T01:17:34;0.40;99.90
12957;DHT22;6543;48.836;10.092;2023-02-14T01:20:01;0.40;99.90
12957;DHT22;6543;48.836;10.092;2023-02-14T01:22:28;0.40;99.90
12957;DHT22;6543;48.836;10.092;2023-02-14T01:24:54;0.40;99.90
12957;DHT22;6543;48.836;10.092;2023-02-14T01:27:23;0.40;99.90
12957;DHT22;6543;48.836;10.092;2023-02-14T01:29:49;0.40;99.90
12957;DHT22;6543;48.836;10.092;2023-02-14T01:32:16;0.40;99.90
12957;DHT22;6543;48.836;10.092;2023-02-14T01:34:43;0.40;99.90
12957;DHT22;6543;48.836;10.092;2023-02-14T01:37:10;0.40;99.90
12957;DHT22;6543;48.836;10.092;2023-02-14T01:39:36;0.40;99.90
12957;DHT22;6543;48.836;10.092;2023-02-14T01:42:03;0.40;99.90
12957;DHT22;6543;48.836;10.092;2023-02-14T01:44:57;0.40;99.90
12957;DHT22;6543;48.836;10.092;2023-02-14T01:47:26;0.40;99.90
12957;DHT22;6543;48.836;10.092;2023-02-14T01:49:56;0.40;99.90
12957;DHT22;6543;48.836;10.092;2023-02-14T01:52:27;0.40;99.90
12957;DHT22;6543;48.836;10.092;2023-02-14T01:54:57;0.40;99.90
12957;DHT22;6543;48.836;10.092;2023-02-14T01:57:27;0.40;99.90
12957;DHT22;6543;48.836;10.092;2023-02-14T01:59:59;0.40;99.90
12957;DHT22;6543;48.836;10.092;2023-02-14T02:02:46;0.40;99.90
12957;DHT22;6543;48.836;10.092;2023-02-14T02:05:14;0.30;99.90
12957;DHT22;6543;48.836;10.092;2023-02-14T02:07:42;0.40;99.90
12957;DHT22;6543;48.836;10.092;2023-02-14T02:10:09;0.40;99.90
12957;DHT22;6543;48.836;10.092;2023-02-14T02:12:36;0.40;99.90
12957;DHT22;6543;48.836;10.092;2023-02-14T02:15:06;0.40;99.90
12957;DHT22;6543;48.836;10.092;2023-02-14T02:17:40;0.40;99.90
12957;DHT22;6543;48.836;10.092;2023-02-14T02:20:42;0.40;99.90
12957;DHT22;6543;48.836;10.092;2023-02-14T02:23:36;0.40;99.90
12957;DHT22;6543;48.836;10.092;2023-02-14T02:26:31;0.40;99.90
12957;DHT22;6543;48.836;10.092;2023-02-14T02:32:31;0.40;99.90
12957;DHT22;6543;48.836;10.092;2023-02-14T02:35:12;0.40;99.90
12957;DHT22;6543;48.836;10.092;2023-02-14T02:37:48;0.40;99.90
12957;DHT22;6543;48.836;10.092;2023-02-14T02:40:28;0.40;99.90
12957;DHT22;6543;48.836;10.092;2023-02-14T02:43:06;0.30;99.90
12957;DHT22;6543;48.836;10.092;2023-02-14T02:45:41;0.30;99.90
12957;DHT22;6543;48.836;10.092;2023-02-14T02:48:33;0.40;99.90
12957;DHT22;6543;48.836;10.092;2023-02-14T02:51:06;0.30;99.90
12957;DHT22;6543;48.836;10.092;2023-02-14T02:53:54;0.30;99.90
12957;DHT22;6543;48.836;10.092;2023-02-14T02:56:26;0.40;99.90
12957;DHT22;6543;48.836;10.092;2023-02-14T02:59:17;0.30;99.90
12957;DHT22;6543;48.836;10.092;2023-02-14T03:01:49;0.40;99.90
12957;DHT22;6543;48.836;10.092;2023-02-14T03:04:18;0.30;99.90
12957;DHT22;6543;48.836;10.092;2023-02-14T03:07:05;0.30;99.90
12957;DHT22;6543;48.836;10.092;2023-02-14T03:09:52;0.30;99.90
12957;DHT22;6543;48.836;10.092;2023-02-14T03:15:23;0.30;99.90
12957;DHT22;6543;48.836;10.092;2023-02-14T03:18:00;0.30;99.90
12957;DHT22;6543;48.836;10.092;2023-02-14T03:20:52;0.40;99.90
12957;DHT22;6543;48.836;10.092;2023-02-14T03:23:26;0.30;99.90
12957;DHT22;6543;48.836;10.092;2023-02-14T03:26:01;0.40;99.90
12957;DHT22;6543;48.836;10.092;2023-02-14T03:28:39;0.40;99.90
12957;DHT22;6543;48.836;10.092;2023-02-14T03:31:13;0.40;99.90
12957;DHT22;6543;48.836;10.092;2023-02-14T03:33:50;0.40;99.90
12957;DHT22;6543;48.836;10.092;2023-02-14T03:36:22;0.40;99.90
12957;DHT22;6543;48.836;10.092;2023-02-14T03:38:55;0.40;99.90
12957;DHT22;6543;48.836;10.092;2023-02-14T03:41:28;0.40;99.90
12957;DHT22;6543;48.836;10.092;2023-02-14T03:44:00;0.40;99.90
12957;DHT22;6543;48.836;10.092;2023-02-14T03:46:31;0.40;99.90
12957;DHT22;6543;48.836;10.092;2023-02-14T03:49:04;0.40;99.90
12957;DHT22;6543;48.836;10.092;2023-02-14T03:51:33;0.40;99.90
12957;DHT22;6543;48.836;10.092;2023-02-14T03:54:08;0.40;99.90
12957;DHT22;6543;48.836;10.092;2023-02-14T03:56:39;0.40;99.90
12957;DHT22;6543;48.836;10.092;2023-02-14T03:59:10;0.30;99.90
12957;DHT22;6543;48.836;10.092;2023-02-14T04:01:43;0.40;99.90
12957;DHT22;6543;48.836;10.092;2023-02-14T04:04:13;0.40;99.90
12957;DHT22;6543;48.836;10.092;2023-02-14T04:06:40;0.40;99.90
12957;DHT22;6543;48.836;10.092;2023-02-14T04:09:08;0.40;99.90
12957;DHT22;6543;48.836;10.092;2023-02-14T04:11:35;0.30;99.90
12957;DHT22;6543;48.836;10.092;2023-02-14T04:14:03;0.30;99.90
12957;DHT22;6543;48.836;10.092;2023-02-14T04:16:30;0.30;99.90
12957;DHT22;6543;48.836;10.092;2023-02-14T04:19:17;0.30;99.90
12957;DHT22;6543;48.836;10.092;2023-02-14T04:21:49;0.30;99.90
12957;DHT22;6543;48.836;10.092;2023-02-14T04:24:17;0.30;99.90
12957;DHT22;6543;48.836;10.092;2023-02-14T04:26:44;0.30;99.90
12957;DHT22;6543;48.836;10.092;2023-02-14T04:29:34;0.30;99.90
12957;DHT22;6543;48.836;10.092;2023-02-14T04:32:02;0.30;99.90
12957;DHT22;6543;48.836;10.092;2023-02-14T04:34:29;0.30;99.90
12957;DHT22;6543;48.836;10.092;2023-02-14T04:36:56;0.30;99.90
12957;DHT22;6543;48.836;10.092;2023-02-14T04:39:24;0.30;99.90
12957;DHT22;6543;48.836;10.092;2023-02-14T04:41:51;0.30;99.90
12957;DHT22;6543;48.836;10.092;2023-02-14T04:44:18;0.30;99.90
12957;DHT22;6543;48.836;10.092;2023-02-14T04:46:45;0.30;99.90
12957;DHT22;6543;48.836;10.092;2023-02-14T04:49:11;0.30;99.90
12957;DHT22;6543;48.836;10.092;2023-02-14T04:51:39;0.30;99.90
12957;DHT22;6543;48.836;10.092;2023-02-14T04:54:05;0.30;99.90
12957;DHT22;6543;48.836;10.092;2023-02-14T04:56:34;0.30;99.90
12957;DHT22;6543;48.836;10.092;2023-02-14T04:59:01;0.30;99.90
12957;DHT22;6543;48.836;10.092;2023-02-14T05:01:28;0.30;99.90
12957;DHT22;6543;48.836;10.092;2023-02-14T05:03:54;0.30;99.90
12957;DHT22;6543;48.836;10.092;2023-02-14T05:06:21;0.30;99.90
12957;DHT22;6543;48.836;10.092;2023-02-14T05:08:48;0.30;99.90
12957;DHT22;6543;48.836;10.092;2023-02-14T05:11:15;0.30;99.90
12957;DHT22;6543;48.836;10.092;2023-02-14T05:13:43;0.30;99.90
12957;DHT22;6543;48.836;10.092;2023-02-14T05:16:10;0.30;99.90
12957;DHT22;6543;48.836;10.092;2023-02-14T05:18:37;0.30;99.90
12957;DHT22;6543;48.836;10.092;2023-02-14T05:21:04;0.20;99.90
12957;DHT22;6543;48.836;10.092;2023-02-14T05:23:31;0.20;99.90
12957;DHT22;6543;48.836;10.092;2023-02-14T05:25:58;0.20;99.90
12957;DHT22;6543;48.836;10.092;2023-02-14T05:28:25;0.20;99.90
12957;DHT22;6543;48.836;10.092;2023-02-14T05:30:53;0.20;99.90
12957;DHT22;6543;48.836;10.092;2023-02-14T05:33:21;0.20;99.90
12957;DHT22;6543;48.836;10.092;2023-02-14T05:35:48;0.20;99.90
12957;DHT22;6543;48.836;10.092;2023-02-14T05:38:15;0.20;99.90
12957;DHT22;6543;48.836;10.092;2023-02-14T05:40:42;0.10;99.90
12957;DHT22;6543;48.836;10.092;2023-02-14T05:43:09;0.10;99.90
12957;DHT22;6543;48.836;10.092;2023-02-14T05:45:36;0.10;99.90
12957;DHT22;6543;48.836;10.092;2023-02-14T05:48:04;0.00;99.90
12957;DHT22;6543;48.836;10.092;2023-02-14T05:50:31;0.10;99.90
12957;DHT22;6543;48.836;10.092;2023-02-14T05:52:59;0.10;99.90
12957;DHT22;6543;48.836;10.092;2023-02-14T05:55:26;0.10;99.90
12957;DHT22;6543;48.836;10.092;2023-02-14T05:57:53;0.10;99.90
12957;DHT22;6543;48.836;10.092;2023-02-14T06:00:22;0.10;99.90
12957;DHT22;6543;48.836;10.092;2023-02-14T06:02:49;0.10;99.90
12957;DHT22;6543;48.836;10.092;2023-02-14T06:05:17;0.10;99.90
12957;DHT22;6543;48.836;10.092;2023-02-14T06:07:45;0.00;99.90
12957;DHT22;6543;48.836;10.092;2023-02-14T06:10:15;0.00;99.90
12957;DHT22;6543;48.836;10.092;2023-02-14T06:12:42;0.00;99.90
12957;DHT22;6543;48.836;10.092;2023-02-14T06:15:09;-0.10;99.90
12957;DHT22;6543;48.836;10.092;2023-02-14T06:17:36;-0.10;99.90
12957;DHT22;6543;48.836;10.092;2023-02-14T06:20:06;-0.10;99.90
12957;DHT22;6543;48.836;10.092;2023-02-14T06:22:35;-0.10;99.90
12957;DHT22;6543;48.836;10.092;2023-02-14T06:25:02;-0.10;99.90
12957;DHT22;6543;48.836;10.092;2023-02-14T06:27:30;-0.10;99.90
12957;DHT22;6543;48.836;10.092;2023-02-14T06:29:57;-0.10;99.90
12957;DHT22;6543;48.836;10.092;2023-02-14T06:32:24;-0.10;99.90
12957;DHT22;6543;48.836;10.092;2023-02-14T06:34:51;-0.10;99.90
12957;DHT22;6543;48.836;10.092;2023-02-14T06:37:18;-0.10;99.90
12957;DHT22;6543;48.836;10.092;2023-02-14T06:39:46;-0.10;99.90
12957;DHT22;6543;48.836;10.092;2023-02-14T06:42:13;0.00;99.90
12957;DHT22;6543;48.836;10.092;2023-02-14T06:44:40;-0.10;99.90
12957;DHT22;6543;48.836;10.092;2023-02-14T06:47:07;0.00;99.90
12957;DHT22;6543;48.836;10.092;2023-02-14T06:49:34;0.00;99.90
12957;DHT22;6543;48.836;10.092;2023-02-14T06:52:01;0.00;99.90
12957;DHT22;6543;48.836;10.092;2023-02-14T06:54:27;0.00;99.90
12957;DHT22;6543;48.836;10.092;2023-02-14T06:56:56;0.00;99.90
12957;DHT22;6543;48.836;10.092;2023-02-14T06:59:22;0.00;99.90
12957;DHT22;6543;48.836;10.092;2023-02-14T07:01:49;0.00;99.90
12957;DHT22;6543;48.836;10.092;2023-02-14T07:04:16;0.00;99.90
12957;DHT22;6543;48.836;10.092;2023-02-14T07:06:43;0.00;99.90
12957;DHT22;6543;48.836;10.092;2023-02-14T07:09:10;0.00;99.90
12957;DHT22;6543;48.836;10.092;2023-02-14T07:11:41;0.00;99.90
12957;DHT22;6543;48.836;10.092;2023-02-14T07:14:09;0.00;99.90
12957;DHT22;6543;48.836;10.092;2023-02-14T07:16:36;0.00;99.90
12957;DHT22;6543;48.836;10.092;2023-02-14T07:19:03;0.00;99.90
12957;DHT22;6543;48.836;10.092;2023-02-14T07:21:30;0.00;99.90
12957;DHT22;6543;48.836;10.092;2023-02-14T07:23:57;0.00;99.90
12957;DHT22;6543;48.836;10.092;2023-02-14T07:26:24;0.10;99.90
12957;DHT22;6543;48.836;10.092;2023-02-14T07:28:50;0.10;99.90
12957;DHT22;6543;48.836;10.092;2023-02-14T07:31:19;0.10;99.90
12957;DHT22;6543;48.836;10.092;2023-02-14T07:33:48;0.20;99.90
12957;DHT22;6543;48.836;10.092;2023-02-14T07:36:14;0.20;99.90
12957;DHT22;6543;48.836;10.092;2023-02-14T07:38:41;0.10;99.90
12957;DHT22;6543;48.836;10.092;2023-02-14T07:41:08;0.20;99.90
12957;DHT22;6543;48.836;10.092;2023-02-14T07:43:35;0.20;99.90
12957;DHT22;6543;48.836;10.092;2023-02-14T07:46:03;0.30;99.90
12957;DHT22;6543;48.836;10.092;2023-02-14T07:48:31;0.30;99.90
12957;DHT22;6543;48.836;10.092;2023-02-14T07:50:58;0.40;99.90
12957;DHT22;6543;48.836;10.092;2023-02-14T07:53:25;0.40;99.90
12957;DHT22;6543;48.836;10.092;2023-02-14T07:55:52;0.40;99.90
12957;DHT22;6543;48.836;10.092;2023-02-14T07:58:19;0.40;99.90
12957;DHT22;6543;48.836;10.092;2023-02-14T08:00:46;0.50;99.90
12957;DHT22;6543;48.836;10.092;2023-02-14T08:03:14;0.60;99.90
12957;DHT22;6543;48.836;10.092;2023-02-14T08:05:42;0.60;99.90
12957;DHT22;6543;48.836;10.092;2023-02-14T08:08:09;0.80;99.90
12957;DHT22;6543;48.836;10.092;2023-02-14T08:10:35;0.90;99.90
12957;DHT22;6543;48.836;10.092;2023-02-14T08:13:02;1.20;99.90
12957;DHT22;6543;48.836;10.092;2023-02-14T08:15:31;1.20;99.90
12957;DHT22;6543;48.836;10.092;2023-02-14T08:18:16;1.30;99.90
12957;DHT22;6543;48.836;10.092;2023-02-14T08:20:45;1.40;99.90
12957;DHT22;6543;48.836;10.092;2023-02-14T08:23:14;1.30;99.90
12957;DHT22;6543;48.836;10.092;2023-02-14T08:25:41;1.30;99.90
12957;DHT22;6543;48.836;10.092;2023-02-14T08:28:09;1.30;99.90
12957;DHT22;6543;48.836;10.092;2023-02-14T08:30:36;1.30;99.90
12957;DHT22;6543;48.836;10.092;2023-02-14T08:33:03;1.50;99.90
12957;DHT22;6543;48.836;10.092;2023-02-14T08:35:30;1.50;99.90
12957;DHT22;6543;48.836;10.092;2023-02-14T08:37:58;1.50;99.90
12957;DHT22;6543;48.836;10.092;2023-02-14T08:40:25;1.50;99.90
12957;DHT22;6543;48.836;10.092;2023-02-14T08:42:52;1.50;99.90
12957;DHT22;6543;48.836;10.092;2023-02-14T08:45:19;1.50;99.90
12957;DHT22;6543;48.836;10.092;2023-02-14T08:47:46;1.70;99.90
12957;DHT22;6543;48.836;10.092;2023-02-14T08:50:14;1.70;99.90
12957;DHT22;6543;48.836;10.092;2023-02-14T08:52:42;1.70;99.90
12957;DHT22;6543;48.836;10.092;2023-02-14T08:55:12;1.80;99.90
12957;DHT22;6543;48.836;10.092;2023-02-14T08:57:39;1.80;99.90
12957;DHT22;6543;48.836;10.092;2023-02-14T09:00:07;1.90;99.90
12957;DHT22;6543;48.836;10.092;2023-02-14T09:02:35;2.10;99.90
12957;DHT22;6543;48.836;10.092;2023-02-14T09:05:01;2.10;99.90
12957;DHT22;6543;48.836;10.092;2023-02-14T09:07:28;2.30;99.90
12957;DHT22;6543;48.836;10.092;2023-02-14T09:09:55;2.30;99.90
12957;DHT22;6543;48.836;10.092;2023-02-14T09:12:23;2.40;99.90
12957;DHT22;6543;48.836;10.092;2023-02-14T09:14:50;2.40;99.90
12957;DHT22;6543;48.836;10.092;2023-02-14T09:17:17;2.50;99.90
12957;DHT22;6543;48.836;10.092;2023-02-14T09:19:44;2.60;99.90
12957;DHT22;6543;48.836;10.092;2023-02-14T09:22:11;2.60;99.90
12957;DHT22;6543;48.836;10.092;2023-02-14T09:24:39;2.70;99.90
12957;DHT22;6543;48.836;10.092;2023-02-14T09:27:07;2.70;99.90
12957;DHT22;6543;48.836;10.092;2023-02-14T09:29:38;2.70;99.90
12957;DHT22;6543;48.836;10.092;2023-02-14T09:32:05;2.90;99.90
12957;DHT22;6543;48.836;10.092;2023-02-14T09:34:33;3.00;99.90
12957;DHT22;6543;48.836;10.092;2023-02-14T09:37:00;3.80;99.90
12957;DHT22;6543;48.836;10.092;2023-02-14T09:39:27;3.10;99.90
12957;DHT22;6543;48.836;10.092;2023-02-14T09:42:10;3.10;99.90
12957;DHT22;6543;48.836;10.092;2023-02-14T09:44:44;3.20;99.90
12957;DHT22;6543;48.836;10.092;2023-02-14T09:47:22;4.60;99.90
12957;DHT22;6543;48.836;10.092;2023-02-14T09:49:57;3.70;99.90
12957;DHT22;6543;48.836;10.092;2023-02-14T09:52:29;2.90;99.90
12957;DHT22;6543;48.836;10.092;2023-02-14T09:54:58;3.90;99.90
12957;DHT22;6543;48.836;10.092;2023-02-14T09:57:34;3.80;99.90
12957;DHT22;6543;48.836;10.092;2023-02-14T10:00:11;4.50;99.90
12957;DHT22;6543;48.836;10.092;2023-02-14T10:02:47;3.90;99.90
12957;DHT22;6543;48.836;10.092;2023-02-14T10:05:18;4.00;99.90
12957;DHT22;6543;48.836;10.092;2023-02-14T10:07:56;4.00;99.90
12957;DHT22;6543;48.836;10.092;2023-02-14T10:10:27;4.10;99.90
12957;DHT22;6543;48.836;10.092;2023-02-14T10:13:03;4.10;99.90
12957;DHT22;6543;48.836;10.092;2023-02-14T10:15:37;4.20;99.90
12957;DHT22;6543;48.836;10.092;2023-02-14T10:18:10;5.30;99.90
12957;DHT22;6543;48.836;10.092;2023-02-14T10:20:42;4.50;99.90
12957;DHT22;6543;48.836;10.092;2023-02-14T10:23:26;4.50;99.90
12957;DHT22;6543;48.836;10.092;2023-02-14T10:25:58;4.60;99.90
12957;DHT22;6543;48.836;10.092;2023-02-14T10:28:31;4.60;99.90
12957;DHT22;6543;48.836;10.092;2023-02-14T10:31:18;4.60;99.90
12957;DHT22;6543;48.836;10.092;2023-02-14T10:33:52;4.80;99.90
12957;DHT22;6543;48.836;10.092;2023-02-14T10:39:25;5.20;99.90
12957;DHT22;6543;48.836;10.092;2023-02-14T10:42:03;4.90;99.90
12957;DHT22;6543;48.836;10.092;2023-02-14T10:44:43;4.90;99.90
12957;DHT22;6543;48.836;10.092;2023-02-14T10:47:26;5.10;99.90
12957;DHT22;6543;48.836;10.092;2023-02-14T10:50:00;5.20;99.90
12957;DHT22;6543;48.836;10.092;2023-02-14T10:52:37;5.90;99.90
12957;DHT22;6543;48.836;10.092;2023-02-14T10:55:11;5.30;99.90
12957;DHT22;6543;48.836;10.092;2023-02-14T10:57:42;5.20;99.90
12957;DHT22;6543;48.836;10.092;2023-02-14T11:00:18;5.30;99.90
12957;DHT22;6543;48.836;10.092;2023-02-14T11:02:51;5.40;99.90
12957;DHT22;6543;48.836;10.092;2023-02-14T11:05:25;5.30;99.90
12957;DHT22;6543;48.836;10.092;2023-02-14T11:07:53;5.40;99.90
12957;DHT22;6543;48.836;10.092;2023-02-14T11:10:25;5.40;99.90
12957;DHT22;6543;48.836;10.092;2023-02-14T11:12:55;5.30;99.90
12957;DHT22;6543;48.836;10.092;2023-02-14T11:15:25;5.40;99.90
12957;DHT22;6543;48.836;10.092;2023-02-14T11:18:16;5.40;99.90
12957;DHT22;6543;48.836;10.092;2023-02-14T11:20:58;5.30;99.90
12957;DHT22;6543;48.836;10.092;2023-02-14T11:23:31;5.70;99.90
12957;DHT22;6543;48.836;10.092;2023-02-14T11:25:59;6.60;99.90
12957;DHT22;6543;48.836;10.092;2023-02-14T11:28:26;6.40;99.90
12957;DHT22;6543;48.836;10.092;2023-02-14T11:30:53;5.70;99.90
12957;DHT22;6543;48.836;10.092;2023-02-14T11:33:33;5.50;99.90
12957;DHT22;6543;48.836;10.092;2023-02-14T11:36:05;5.50;99.90
12957;DHT22;6543;48.836;10.092;2023-02-14T11:38:37;5.60;99.90
12957;DHT22;6543;48.836;10.092;2023-02-14T11:41:07;5.60;99.90
12957;DHT22;6543;48.836;10.092;2023-02-14T11:43:36;5.60;99.90
12957;DHT22;6543;48.836;10.092;2023-02-14T11:46:26;6.40;99.90
12957;DHT22;6543;48.836;10.092;2023-02-14T11:49:08;5.70;99.90
12957;DHT22;6543;48.836;10.092;2023-02-14T11:51:52;6.60;99.90
12957;DHT22;6543;48.836;10.092;2023-02-14T11:54:34;5.80;99.90
12957;DHT22;6543;48.836;10.092;2023-02-14T11:57:05;5.90;99.90
12957;DHT22;6543;48.836;10.092;2023-02-14T11:59:36;6.00;99.90
12957;DHT22;6543;48.836;10.092;2023-02-14T12:02:21;6.00;99.90
12957;DHT22;6543;48.836;10.092;2023-02-14T12:04:59;6.20;99.90
12957;DHT22;6543;48.836;10.092;2023-02-14T12:07:31;6.10;99.90
12957;DHT22;6543;48.836;10.092;2023-02-14T12:10:18;6.50;99.90
12957;DHT22;6543;48.836;10.092;2023-02-14T12:12:54;6.20;99.90
12957;DHT22;6543;48.836;10.092;2023-02-14T12:15:31;6.40;99.90
12957;DHT22;6543;48.836;10.092;2023-02-14T12:21:22;6.50;99.90
12957;DHT22;6543;48.836;10.092;2023-02-14T12:23:58;6.60;99.90
12957;DHT22;6543;48.836;10.092;2023-02-14T12:26:32;6.80;99.90
12957;DHT22;6543;48.836;10.092;2023-02-14T12:29:05;6.80;99.90
12957;DHT22;6543;48.836;10.092;2023-02-14T12:31:35;5.60;99.90
12957;DHT22;6543;48.836;10.092;2023-02-14T12:34:02;6.60;99.90
12957;DHT22;6543;48.836;10.092;2023-02-14T12:39:36;6.80;99.90
12957;DHT22;6543;48.836;10.092;2023-02-14T12:42:17;6.90;99.90
12957;DHT22;6543;48.836;10.092;2023-02-14T12:44:54;7.00;99.90
12957;DHT22;6543;48.836;10.092;2023-02-14T12:47:31;7.40;99.90
12957;DHT22;6543;48.836;10.092;2023-02-14T12:50:20;7.20;99.90
12957;DHT22;6543;48.836;10.092;2023-02-14T12:53:09;7.20;99.90
12957;DHT22;6543;48.836;10.092;2023-02-14T12:55:51;7.30;99.90
12957;DHT22;6543;48.836;10.092;2023-02-14T12:58:36;7.30;99.90
12957;DHT22;6543;48.836;10.092;2023-02-14T13:01:27;7.40;99.90
12957;DHT22;6543;48.836;10.092;2023-02-14T13:04:15;7.50;99.90
12957;DHT22;6543;48.836;10.092;2023-02-14T13:06:53;8.40;99.90
12957;DHT22;6543;48.836;10.092;2023-02-14T13:09:32;7.70;99.90
12957;DHT22;6543;48.836;10.092;2023-02-14T13:12:11;7.80;99.90
12957;DHT22;6543;48.836;10.092;2023-02-14T13:14:51;7.80;99.90
12957;DHT22;6543;48.836;10.092;2023-02-14T13:17:29;8.00;99.90
12957;DHT22;6543;48.836;10.092;2023-02-14T13:20:15;7.90;99.90
12957;DHT22;6543;48.836;10.092;2023-02-14T13:22:49;8.00;99.90
12957;DHT22;6543;48.836;10.092;2023-02-14T13:25:24;9.00;99.90
12957;DHT22;6543;48.836;10.092;2023-02-14T13:27:58;8.10;99.90
12957;DHT22;6543;48.836;10.092;2023-02-14T13:30:29;8.20;99.90
12957;DHT22;6543;48.836;10.092;2023-02-14T13:33:02;8.20;99.90
12957;DHT22;6543;48.836;10.092;2023-02-14T13:35:32;8.30;99.90
12957;DHT22;6543;48.836;10.092;2023-02-14T13:38:04;8.40;99.90
12957;DHT22;6543;48.836;10.092;2023-02-14T13:40:46;8.40;99.90
12957;DHT22;6543;48.836;10.092;2023-02-14T13:43:48;8.30;99.90
12957;DHT22;6543;48.836;10.092;2023-02-14T13:46:20;8.40;99.90
12957;DHT22;6543;48.836;10.092;2023-02-14T13:49:00;9.30;99.90
12957;DHT22;6543;48.836;10.092;2023-02-14T13:51:46;8.40;99.90
12957;DHT22;6543;48.836;10.092;2023-02-14T13:54:21;8.40;99.90
12957;DHT22;6543;48.836;10.092;2023-02-14T13:56:48;8.50;99.90
12957;DHT22;6543;48.836;10.092;2023-02-14T13:59:27;8.30;99.90
12957;DHT22;6543;48.836;10.092;2023-02-14T14:01:54;8.30;99.90
12957;DHT22;6543;48.836;10.092;2023-02-14T14:04:36;8.40;99.90
12957;DHT22;6543;48.836;10.092;2023-02-14T14:07:20;8.40;99.90
12957;DHT22;6543;48.836;10.092;2023-02-14T14:10:00;8.30;99.90
12957;DHT22;6543;48.836;10.092;2023-02-14T14:12:39;8.30;99.90
12957;DHT22;6543;48.836;10.092;2023-02-14T14:15:16;8.40;99.90
12957;DHT22;6543;48.836;10.092;2023-02-14T14:17:45;8.50;99.90
12957;DHT22;6543;48.836;10.092;2023-02-14T14:20:41;8.40;99.90
12957;DHT22;6543;48.836;10.092;2023-02-14T14:23:31;8.30;99.90
12957;DHT22;6543;48.836;10.092;2023-02-14T14:25:59;8.10;99.90
12957;DHT22;6543;48.836;10.092;2023-02-14T14:28:30;8.10;99.90
12957;DHT22;6543;48.836;10.092;2023-02-14T14:30:59;8.10;99.90
12957;DHT22;6543;48.836;10.092;2023-02-14T14:33:28;8.10;99.90
12957;DHT22;6543;48.836;10.092;2023-02-14T14:35:57;8.20;99.90
12957;DHT22;6543;48.836;10.092;2023-02-14T14:38:25;8.30;99.90
12957;DHT22;6543;48.836;10.092;2023-02-14T14:40:54;8.30;99.90
12957;DHT22;6543;48.836;10.092;2023-02-14T14:43:26;8.40;99.90
12957;DHT22;6543;48.836;10.092;2023-02-14T14:45:55;8.30;99.90
12957;DHT22;6543;48.836;10.092;2023-02-14T14:48:29;8.30;99.90
12957;DHT22;6543;48.836;10.092;2023-02-14T14:50:56;8.20;99.90
12957;DHT22;6543;48.836;10.092;2023-02-14T14:53:26;9.50;99.90
12957;DHT22;6543;48.836;10.092;2023-02-14T14:55:55;8.00;99.90
12957;DHT22;6543;48.836;10.092;2023-02-14T14:58:38;8.00;99.90
12957;DHT22;6543;48.836;10.092;2023-02-14T15:01:07;8.00;99.90
12957;DHT22;6543;48.836;10.092;2023-02-14T15:03:39;8.00;99.90
12957;DHT22;6543;48.836;10.092;2023-02-14T15:06:12;8.00;99.90
12957;DHT22;6543;48.836;10.092;2023-02-14T15:08:40;8.00;99.90
12957;DHT22;6543;48.836;10.092;2023-02-14T15:11:10;7.90;99.90
12957;DHT22;6543;48.836;10.092;2023-02-14T15:14:00;7.80;99.90
12957;DHT22;6543;48.836;10.092;2023-02-14T15:16:29;7.80;99.90
12957;DHT22;6543;48.836;10.092;2023-02-14T15:19:06;7.70;99.90
12957;DHT22;6543;48.836;10.092;2023-02-14T15:21:34;7.60;99.90
12957;DHT22;6543;48.836;10.092;2023-02-14T15:24:02;7.40;99.90
12957;DHT22;6543;48.836;10.092;2023-02-14T15:26:31;7.30;99.90
12957;DHT22;6543;48.836;10.092;2023-02-14T15:28:59;7.30;99.90
12957;DHT22;6543;48.836;10.092;2023-02-14T15:31:33;7.90;99.90
12957;DHT22;6543;48.836;10.092;2023-02-14T15:34:03;7.10;99.90
12957;DHT22;6543;48.836;10.092;2023-02-14T15:36:31;7.00;99.90
12957;DHT22;6543;48.836;10.092;2023-02-14T15:39:02;6.80;99.90
12957;DHT22;6543;48.836;10.092;2023-02-14T15:41:30;6.80;99.90
12957;DHT22;6543;48.836;10.092;2023-02-14T15:43:58;6.80;99.90
12957;DHT22;6543;48.836;10.092;2023-02-14T15:46:30;6.70;99.90
12957;DHT22;6543;48.836;10.092;2023-02-14T15:48:59;6.60;99.90
12957;DHT22;6543;48.836;10.092;2023-02-14T15:51:33;6.50;99.90
12957;DHT22;6543;48.836;10.092;2023-02-14T15:54:02;6.50;99.90
12957;DHT22;6543;48.836;10.092;2023-02-14T15:56:32;6.40;99.90
12957;DHT22;6543;48.836;10.092;2023-02-14T15:59:02;6.30;99.90
12957;DHT22;6543;48.836;10.092;2023-02-14T16:01:30;6.10;99.90
12957;DHT22;6543;48.836;10.092;2023-02-14T16:04:02;5.90;99.90
12957;DHT22;6543;48.836;10.092;2023-02-14T16:06:34;5.60;99.90
12957;DHT22;6543;48.836;10.092;2023-02-14T16:09:03;5.50;99.90
12957;DHT22;6543;48.836;10.092;2023-02-14T16:11:31;5.20;99.90
12957;DHT22;6543;48.836;10.092;2023-02-14T16:14:30;5.00;99.90
12957;DHT22;6543;48.836;10.092;2023-02-14T16:16:59;4.90;99.90
12957;DHT22;6543;48.836;10.092;2023-02-14T16:19:33;4.70;99.90
12957;DHT22;6543;48.836;10.092;2023-02-14T16:22:02;4.60;99.90
12957;DHT22;6543;48.836;10.092;2023-02-14T16:24:29;4.50;99.90
12957;DHT22;6543;48.836;10.092;2023-02-14T16:26:56;4.30;99.90
12957;DHT22;6543;48.836;10.092;2023-02-14T16:29:23;4.30;99.90